createdAt,value
2023-01-27T00:01:54.325Z,63.10
2023-01-27T00:04:25.994Z,61.90
2023-01-27T00:09:27.709Z,61.40
2023-01-27T00:14:46.793Z,58.00
2023-01-27T00:19:48.597Z,58.50
2023-01-27T00:25:13.260Z,56.80
2023-01-27T00:27:45.562Z,60.10
2023-01-27T00:30:18.074Z,56.90
2023-01-27T00:33:07.422Z,57.90
2023-01-27T00:35:40.611Z,57.40
2023-01-27T00:41:02.305Z,52.30
2023-01-27T00:43:33.967Z,59.20
2023-01-27T00:46:06.428Z,58.00
2023-01-27T00:48:38.161Z,58.70
2023-01-27T00:53:40.071Z,58.10
2023-01-27T00:56:12.089Z,61.90
2023-01-27T00:58:43.756Z,63.10
2023-01-27T01:01:17.655Z,64.00
2023-01-27T01:03:49.917Z,63.50
2023-01-27T01:06:22.313Z,64.80
2023-01-27T01:08:54.219Z,63.00
2023-01-27T01:11:27.552Z,59.80
2023-01-27T01:13:59.260Z,61.80
2023-01-27T01:19:01.698Z,58.80
2023-01-27T01:21:33.409Z,55.20
2023-01-27T01:26:35.563Z,54.60
2023-01-27T01:31:37.601Z,56.40
2023-01-27T01:36:39.332Z,55.70
2023-01-27T01:41:41.136Z,55.50
2023-01-27T01:44:24.535Z,50.00
2023-01-27T01:46:56.486Z,53.70
2023-01-27T01:49:31.620Z,52.90
2023-01-27T01:52:08.188Z,56.40
2023-01-27T01:54:44.209Z,57.20
2023-01-27T01:57:23.151Z,56.20
2023-01-27T01:59:58.766Z,56.90
2023-01-27T02:02:32.503Z,53.90
2023-01-27T02:05:09.634Z,55.60
2023-01-27T02:07:47.989Z,49.70
2023-01-27T02:10:20.045Z,49.90
2023-01-27T02:12:52.333Z,43.70
2023-01-27T02:15:24.059Z,41.20
2023-01-27T02:17:58.299Z,38.70
2023-01-27T02:20:35.549Z,40.60
2023-01-27T02:23:18.897Z,39.80
2023-01-27T02:25:56.042Z,40.40
2023-01-27T02:28:30.443Z,38.70
2023-01-27T02:31:02.748Z,42.50
2023-01-27T02:33:34.730Z,38.30
2023-01-27T02:36:11.754Z,41.70
2023-01-27T02:38:48.405Z,38.60
2023-01-27T02:41:25.852Z,38.70
2023-01-27T02:43:57.936Z,39.30
2023-01-27T02:46:29.759Z,36.70
2023-01-27T02:49:01.457Z,40.60
2023-01-27T02:51:34.524Z,35.60
2023-01-27T02:54:06.463Z,35.10
2023-01-27T02:59:08.588Z,32.80
2023-01-27T03:01:43.613Z,36.20
2023-01-27T03:04:16.031Z,35.40
2023-01-27T03:06:47.674Z,35.70
2023-01-27T03:12:06.834Z,36.80
2023-01-27T03:14:55.992Z,35.20
2023-01-27T03:17:44.939Z,36.60
2023-01-27T03:20:17.392Z,37.00
2023-01-27T03:22:49.144Z,35.60
2023-01-27T03:25:21.089Z,37.20
2023-01-27T03:27:53.866Z,39.00
2023-01-27T03:30:30.912Z,39.70
2023-01-27T03:33:10.549Z,39.80
2023-01-27T03:36:15.399Z,37.70
2023-01-27T03:39:09.845Z,37.70
2023-01-27T03:41:58.670Z,38.90
2023-01-27T03:44:48.776Z,39.60
2023-01-27T03:47:20.434Z,38.30
2023-01-27T03:49:52.206Z,39.90
2023-01-27T03:54:53.915Z,37.00
2023-01-27T03:59:55.686Z,38.20
2023-01-27T04:05:32.563Z,38.40
2023-01-27T04:08:05.982Z,39.90
2023-01-27T04:10:37.592Z,40.60
2023-01-27T04:15:39.360Z,36.40
2023-01-27T04:18:11.185Z,39.30
2023-01-27T04:23:13.395Z,39.20
2023-01-27T04:25:45.635Z,38.10
2023-01-27T04:28:37.335Z,38.90
2023-01-27T04:31:11.639Z,37.40
2023-01-27T04:33:43.560Z,40.40
2023-01-27T04:36:15.499Z,41.30
2023-01-27T04:38:47.528Z,41.40
2023-01-27T04:41:19.141Z,39.30
2023-01-27T04:43:50.768Z,39.40
2023-01-27T04:46:22.656Z,37.10
2023-01-27T04:51:24.600Z,36.10
2023-01-27T04:56:29.003Z,37.80
2023-01-27T04:59:02.722Z,35.90
2023-01-27T05:01:34.604Z,37.40
2023-01-27T05:04:06.468Z,41.40
2023-01-27T05:06:38.106Z,45.40
2023-01-27T05:11:39.842Z,72.30
2023-01-27T05:16:42.089Z,51.30
2023-01-27T05:19:13.771Z,74.30
2023-01-27T05:24:16.243Z,93.20
2023-01-27T05:26:47.930Z,52.00
2023-01-27T05:31:49.737Z,65.00
2023-01-27T05:36:52.143Z,61.20
2023-01-27T05:39:23.832Z,71.80
2023-01-27T05:41:55.771Z,87.30
2023-01-27T05:44:27.473Z,63.80
2023-01-27T05:49:29.256Z,68.10
2023-01-27T05:54:31.139Z,60.30
2023-01-27T05:59:32.838Z,120.90
2023-01-27T06:02:04.902Z,118.40
2023-01-27T06:04:36.821Z,77.90
2023-01-27T06:07:08.460Z,68.90
2023-01-27T06:12:10.923Z,65.40
2023-01-27T06:17:12.669Z,64.90
2023-01-27T06:22:14.684Z,78.60
2023-01-27T06:27:17.548Z,45.70
2023-01-27T06:29:49.454Z,46.70
2023-01-27T06:32:21.131Z,49.00
2023-01-27T06:37:23.012Z,46.70
2023-01-27T06:42:24.790Z,49.30
2023-01-27T06:47:27.641Z,58.80
2023-01-27T06:52:29.426Z,57.50
2023-01-27T06:55:01.086Z,54.10
2023-01-27T06:57:33.080Z,50.90
2023-01-27T07:02:35.648Z,78.40
2023-01-27T07:05:08.135Z,63.70
2023-01-27T07:07:40.122Z,72.30
2023-01-27T07:10:13.364Z,51.30
2023-01-27T07:12:45.215Z,60.60
2023-01-27T07:17:47.436Z,55.60
2023-01-27T07:20:19.217Z,52.20
2023-01-27T07:22:50.870Z,58.00
2023-01-27T07:27:52.826Z,50.60
2023-01-27T07:32:55.305Z,43.90
2023-01-27T07:35:27.174Z,42.90
2023-01-27T07:38:00.601Z,47.10
2023-01-27T07:40:32.359Z,46.50
2023-01-27T07:43:04.760Z,45.50
2023-01-27T07:45:39.010Z,45.30
2023-01-27T07:50:43.304Z,63.50
2023-01-27T07:53:15.013Z,70.30
2023-01-27T07:58:16.841Z,62.30
2023-01-27T08:00:48.563Z,48.00
2023-01-27T08:05:54.619Z,52.10
2023-01-27T08:10:59.862Z,63.90
2023-01-27T08:13:32.169Z,54.60
2023-01-27T08:16:05.932Z,47.30
2023-01-27T08:18:37.892Z,42.00
2023-01-27T08:21:11.845Z,47.20
2023-01-27T08:23:43.613Z,45.60
2023-01-27T08:28:45.855Z,42.90
2023-01-27T08:33:54.056Z,44.10
2023-01-27T08:36:26.283Z,50.10
2023-01-27T08:38:58.145Z,49.00
2023-01-27T08:41:30.158Z,52.20
2023-01-27T08:44:01.818Z,52.20
2023-01-27T08:49:03.836Z,52.30
2023-01-27T08:51:37.003Z,49.20
2023-01-27T08:54:08.750Z,53.20
2023-01-27T08:56:40.444Z,51.60
2023-01-27T09:01:42.701Z,52.70
2023-01-27T09:04:14.715Z,51.60
2023-01-27T09:09:20.029Z,46.30
2023-01-27T09:14:21.862Z,40.90
2023-01-27T09:19:23.704Z,47.40
2023-01-27T09:21:55.505Z,45.00
2023-01-27T09:26:59.309Z,45.20
2023-01-27T09:29:32.328Z,45.00
2023-01-27T09:34:34.236Z,46.20
2023-01-27T09:39:45.282Z,42.80
2023-01-27T09:42:35.429Z,43.30
2023-01-27T09:45:34.008Z,42.30
2023-01-27T09:48:23.970Z,45.40
2023-01-27T09:51:04.163Z,43.10
2023-01-27T09:54:00.534Z,41.30
2023-01-27T09:56:44.587Z,41.20
2023-01-27T09:59:40.984Z,44.30
2023-01-27T10:02:28.010Z,41.60
2023-01-27T10:05:14.092Z,41.00
2023-01-27T10:08:02.165Z,44.50
2023-01-27T10:10:46.491Z,45.20
2023-01-27T10:13:31.101Z,42.20
2023-01-27T10:16:22.974Z,51.00
2023-01-27T10:21:42.172Z,39.20
2023-01-27T10:24:25.254Z,43.00
2023-01-27T10:27:01.621Z,42.10
2023-01-27T10:29:41.019Z,43.40
2023-01-27T10:32:22.979Z,45.80
2023-01-27T10:35:05.818Z,46.20
2023-01-27T10:37:48.387Z,45.10
2023-01-27T10:40:27.924Z,44.00
2023-01-27T10:43:08.147Z,44.10
2023-01-27T10:45:43.961Z,45.20
2023-01-27T10:48:30.947Z,42.00
2023-01-27T10:51:06.479Z,47.40
2023-01-27T10:53:44.877Z,47.80
2023-01-27T10:56:25.529Z,50.70
2023-01-27T10:59:04.853Z,41.10
2023-01-27T11:01:41.344Z,44.50
2023-01-27T11:04:19.697Z,50.40
2023-01-27T11:06:54.033Z,50.10
2023-01-27T11:09:30.642Z,49.00
2023-01-27T11:12:06.081Z,51.80
2023-01-27T11:14:45.820Z,50.00
2023-01-27T11:17:24.853Z,47.00
2023-01-27T11:20:05.373Z,47.80
2023-01-27T11:22:47.105Z,47.20
2023-01-27T11:28:07.758Z,39.60
2023-01-27T11:30:45.423Z,43.50
2023-01-27T11:33:24.186Z,43.70
2023-01-27T11:35:56.032Z,42.80
2023-01-27T11:38:27.672Z,43.60
2023-01-27T11:43:30.752Z,43.20
2023-01-27T11:46:05.931Z,41.10
2023-01-27T11:48:42.787Z,41.70
2023-01-27T11:51:20.661Z,42.90
2023-01-27T11:54:01.156Z,39.10
2023-01-27T11:56:34.398Z,34.50
2023-01-27T11:59:11.077Z,34.20
2023-01-27T12:01:48.586Z,33.10
2023-01-27T12:04:31.079Z,43.40
2023-01-27T12:07:05.976Z,39.10
2023-01-27T12:09:39.219Z,37.10
2023-01-27T12:12:23.546Z,39.60
2023-01-27T12:14:57.762Z,38.70
2023-01-27T12:17:36.946Z,40.60
2023-01-27T12:20:23.589Z,44.80
2023-01-27T12:22:58.988Z,48.20
2023-01-27T12:25:33.364Z,44.30
2023-01-27T12:28:06.613Z,41.10
2023-01-27T12:30:40.946Z,38.80
2023-01-27T12:33:22.077Z,37.40
2023-01-27T12:35:58.376Z,40.40
2023-01-27T12:38:35.378Z,51.90
2023-01-27T12:41:10.627Z,47.00
2023-01-27T12:43:55.661Z,38.40
2023-01-27T12:46:28.417Z,40.40
2023-01-27T12:49:15.769Z,39.00
2023-01-27T12:51:55.740Z,34.20
2023-01-27T12:54:28.828Z,34.50
2023-01-27T12:57:05.539Z,34.30
2023-01-27T12:59:52.516Z,36.30
2023-01-27T13:02:27.413Z,36.10
2023-01-27T13:05:03.011Z,35.00
2023-01-27T13:07:43.876Z,35.50
2023-01-27T13:10:23.821Z,31.30
2023-01-27T13:12:58.490Z,30.20
2023-01-27T13:15:31.948Z,31.80
2023-01-27T13:18:21.797Z,33.20
2023-01-27T13:20:57.725Z,32.50
2023-01-27T13:23:35.699Z,33.10
2023-01-27T13:26:15.345Z,31.70
2023-01-27T13:28:53.298Z,31.60
2023-01-27T13:31:36.940Z,32.50
2023-01-27T13:34:17.405Z,30.50
2023-01-27T13:36:53.410Z,33.80
2023-01-27T13:39:39.991Z,34.00
2023-01-27T13:42:18.398Z,35.30
2023-01-27T13:44:57.006Z,30.00
2023-01-27T13:47:34.602Z,45.00
2023-01-27T13:50:17.581Z,35.80
2023-01-27T13:52:54.033Z,35.40
2023-01-27T13:55:41.590Z,35.80
2023-01-27T13:58:22.587Z,42.30
2023-01-27T14:01:02.502Z,40.50
2023-01-27T14:03:56.813Z,36.60
2023-01-27T14:06:42.399Z,36.80
2023-01-27T14:09:33.503Z,40.70
2023-01-27T14:12:19.724Z,38.70
2023-01-27T14:15:03.340Z,38.00
2023-01-27T14:17:44.607Z,33.90
2023-01-27T14:20:39.540Z,37.40
2023-01-27T14:23:28.301Z,47.10
2023-01-27T14:26:12.935Z,47.00
2023-01-27T14:28:59.586Z,39.90
2023-01-27T14:31:44.024Z,34.40
2023-01-27T14:34:31.620Z,27.80
2023-01-27T14:37:11.687Z,25.60
2023-01-27T14:39:49.960Z,23.00
2023-01-27T14:42:31.245Z,24.20
2023-01-27T14:45:10.544Z,34.80
2023-01-27T14:47:49.164Z,29.90
2023-01-27T14:50:29.426Z,31.00
2023-01-27T14:53:16.102Z,39.10
2023-01-27T14:55:56.617Z,30.90
2023-01-27T14:58:42.628Z,27.10
2023-01-27T15:01:25.683Z,31.00
2023-01-27T15:04:20.516Z,27.30
2023-01-27T15:06:57.003Z,27.80
2023-01-27T15:09:41.953Z,28.10
2023-01-27T15:12:35.157Z,24.60
2023-01-27T15:15:35.333Z,21.80
2023-01-27T15:18:21.912Z,28.30
2023-01-27T15:21:17.618Z,32.20
2023-01-27T15:24:10.412Z,29.20
2023-01-27T15:26:42.638Z,23.70
2023-01-27T15:29:16.325Z,27.20
2023-01-27T15:32:25.769Z,26.10
2023-01-27T15:35:41.394Z,31.50
2023-01-27T15:38:33.685Z,23.80
2023-01-27T15:41:12.244Z,24.50
2023-01-27T15:44:16.467Z,19.60
2023-01-27T15:46:50.710Z,34.70
2023-01-27T15:49:25.760Z,23.50
2023-01-27T15:52:09.473Z,22.60
2023-01-27T15:54:44.987Z,23.20
2023-01-27T15:57:29.108Z,21.80
2023-01-27T16:00:07.347Z,23.70
2023-01-27T16:02:52.551Z,29.30
2023-01-27T16:05:29.502Z,25.40
2023-01-27T16:08:05.022Z,28.40
2023-01-27T16:10:38.076Z,30.30
2023-01-27T16:13:26.696Z,29.70
2023-01-27T16:16:32.525Z,28.10
2023-01-27T16:19:17.381Z,34.20
2023-01-27T16:21:54.591Z,36.20
2023-01-27T16:24:36.703Z,34.80
2023-01-27T16:27:18.696Z,34.70
2023-01-27T16:29:58.041Z,33.30
2023-01-27T16:32:38.845Z,34.90
2023-01-27T16:35:21.547Z,39.70
2023-01-27T16:38:05.739Z,37.80
2023-01-27T16:40:39.130Z,33.60
2023-01-27T16:43:18.646Z,32.00
2023-01-27T16:45:53.564Z,37.60
2023-01-27T16:48:30.298Z,37.20
2023-01-27T16:51:14.339Z,37.70
2023-01-27T16:53:54.457Z,53.70
2023-01-27T16:56:29.801Z,43.70
2023-01-27T16:59:05.014Z,48.90
2023-01-27T17:01:42.004Z,42.30
2023-01-27T17:04:20.555Z,40.80
2023-01-27T17:06:56.838Z,48.00
2023-01-27T17:09:31.911Z,45.70
2023-01-27T17:12:03.971Z,44.90
2023-01-27T17:14:38.435Z,49.80
2023-01-27T17:17:21.958Z,40.10
2023-01-27T17:19:56.581Z,45.00
2023-01-27T17:22:35.885Z,39.20
2023-01-27T17:25:15.874Z,38.90
2023-01-27T17:27:48.253Z,29.10
2023-01-27T17:30:25.016Z,27.50
2023-01-27T17:32:58.747Z,28.00
2023-01-27T17:35:33.068Z,29.30
2023-01-27T17:38:15.496Z,25.70
2023-01-27T17:40:49.014Z,35.60
2023-01-27T17:43:29.304Z,36.60
2023-01-27T17:46:17.168Z,29.10
2023-01-27T17:48:53.883Z,30.20
2023-01-27T17:51:28.611Z,25.50
2023-01-27T17:54:01.526Z,26.80
2023-01-27T17:56:34.924Z,28.80
2023-01-27T17:59:12.259Z,27.60
2023-01-27T18:01:44.411Z,30.50
2023-01-27T18:04:16.899Z,31.40
2023-01-27T18:06:50.384Z,35.00
2023-01-27T18:09:26.047Z,36.00
2023-01-27T18:12:01.157Z,33.90
2023-01-27T18:14:36.507Z,31.90
2023-01-27T18:17:22.306Z,29.60
2023-01-27T18:19:55.418Z,35.20
2023-01-27T18:22:27.539Z,30.70
2023-01-27T18:25:03.615Z,30.90
2023-01-27T18:27:38.342Z,29.60
2023-01-27T18:30:19.035Z,33.20
2023-01-27T18:32:54.241Z,35.90
2023-01-27T18:35:28.687Z,33.30
2023-01-27T18:38:03.560Z,33.90
2023-01-27T18:40:37.110Z,34.50
2023-01-27T18:43:10.462Z,36.70
2023-01-27T18:45:44.487Z,32.10
2023-01-27T18:48:18.423Z,33.40
2023-01-27T18:50:50.290Z,32.50
2023-01-27T18:53:22.572Z,35.50
2023-01-27T18:55:54.588Z,34.40
2023-01-27T18:58:26.262Z,36.60
2023-01-27T19:03:34.458Z,29.40
2023-01-27T19:06:06.897Z,36.60
2023-01-27T19:08:39.424Z,35.10
2023-01-27T19:11:14.894Z,36.20
2023-01-27T19:13:48.265Z,39.20
2023-01-27T19:16:20.335Z,39.10
2023-01-27T19:18:52.230Z,39.90
2023-01-27T19:21:23.922Z,34.60
2023-01-27T19:26:26.129Z,33.20
2023-01-27T19:28:59.254Z,33.60
2023-01-27T19:31:31.137Z,34.10
2023-01-27T19:34:03.135Z,35.10
2023-01-27T19:36:41.763Z,36.80
2023-01-27T19:39:17.541Z,35.20
2023-01-27T19:41:49.471Z,31.90
2023-01-27T19:44:21.191Z,32.10
2023-01-27T19:49:23.669Z,34.10
2023-01-27T19:51:55.683Z,36.00
2023-01-27T19:54:31.047Z,35.10
2023-01-27T19:57:02.986Z,40.60
2023-01-27T19:59:35.475Z,41.60
2023-01-27T20:02:07.480Z,39.80
2023-01-27T20:04:39.380Z,37.90
2023-01-27T20:07:13.948Z,38.60
2023-01-27T20:09:45.600Z,42.30
2023-01-27T20:14:52.674Z,34.90
2023-01-27T20:17:24.422Z,36.30
2023-01-27T20:22:27.199Z,37.60
2023-01-27T20:24:58.937Z,39.80
2023-01-27T20:27:30.708Z,44.70
2023-01-27T20:30:02.857Z,45.40
2023-01-27T20:32:34.750Z,43.90
2023-01-27T20:37:37.670Z,43.00
2023-01-27T20:40:16.139Z,49.50
2023-01-27T20:42:48.153Z,44.30
2023-01-27T20:45:20.443Z,44.10
2023-01-27T20:47:53.547Z,44.50
2023-01-27T20:50:26.328Z,47.10
2023-01-27T20:52:58.252Z,47.00
2023-01-27T20:55:31.439Z,43.10
2023-01-27T20:58:03.188Z,48.20
2023-01-27T21:03:05.305Z,44.70
2023-01-27T21:08:07.406Z,46.80
2023-01-27T21:10:39.104Z,49.40
2023-01-27T21:13:10.917Z,47.60
2023-01-27T21:18:19.678Z,45.10
2023-01-27T21:20:53.891Z,47.00
2023-01-27T21:23:27.746Z,44.80
2023-01-27T21:26:03.289Z,43.40
2023-01-27T21:28:36.124Z,45.50
2023-01-27T21:31:12.797Z,45.80
2023-01-27T21:33:46.915Z,46.90
2023-01-27T21:36:21.737Z,45.50
2023-01-27T21:38:54.029Z,48.10
2023-01-27T21:41:43.916Z,49.50
2023-01-27T21:44:37.101Z,47.20
2023-01-27T21:47:10.695Z,48.50
2023-01-27T21:50:02.959Z,47.00
2023-01-27T21:52:37.521Z,50.90
2023-01-27T21:55:12.748Z,48.60
2023-01-27T21:57:45.875Z,48.80
2023-01-27T22:00:21.460Z,49.10
2023-01-27T22:02:57.405Z,46.60
2023-01-27T22:05:31.402Z,45.10
2023-01-27T22:08:03.230Z,46.40
2023-01-27T22:10:35.401Z,43.70
2023-01-27T22:13:08.208Z,47.20
2023-01-27T22:15:39.901Z,43.10
2023-01-27T22:20:41.775Z,43.80
2023-01-27T22:25:48.114Z,41.00
2023-01-27T22:28:20.358Z,45.00
2023-01-27T22:30:52.161Z,44.60
2023-01-27T22:33:23.951Z,48.50
2023-01-27T22:38:32.420Z,43.00
2023-01-27T22:41:04.097Z,45.40
2023-01-27T22:46:06.701Z,40.40
2023-01-27T22:48:38.617Z,44.20
2023-01-27T22:51:10.362Z,43.80
2023-01-27T22:53:42.099Z,43.10
2023-01-27T22:58:43.811Z,44.30
2023-01-27T23:01:16.281Z,45.00
2023-01-27T23:03:47.975Z,46.80
2023-01-27T23:08:49.811Z,40.40
2023-01-27T23:11:21.546Z,44.10
2023-01-27T23:13:53.174Z,45.40
2023-01-27T23:18:55.453Z,38.10
2023-01-27T23:23:57.375Z,38.00
2023-01-27T23:26:29.010Z,40.70
2023-01-27T23:29:00.633Z,39.90
2023-01-27T23:34:02.647Z,37.80
2023-01-27T23:39:04.565Z,41.50
2023-01-27T23:41:36.168Z,39.20
2023-01-27T23:46:38.336Z,40.10
2023-01-27T23:51:41.267Z,36.40
2023-01-27T23:56:43.145Z,39.00
